Douglas, WY (82633)

4:02 AM MDT on July 12, 2014 (GMT -0600)
Converse County (KDGW) Elev 4928 ft | 42.80 °N, 105.38 °W | Change Station

Current weather conditions updated 9 minutes ago

Overcast
Overcast
61 °F
Feels Like 61 °F
N
0
Wind Variable Wind from North

Today is forecast to be nearly the same temperature as yesterday.

Today
High -- | Low -- °F
--% Chance of Precip.
Yesterday
High -- | Low -- °F
Precip. -- in
5:34 AM 8:40 PM
Full, 100% visible
Pressure 30.02 in
Visibility 10.0 miles
Clouds Mostly Cloudy 7000 ft
Overcast 9000 ft
Dew Point 56 °F
Humidity 83%
Rainfall 0.00 in
Snow Depth Not available.
UV 0 out of 12
Pollen 3.30 out of 12
Air Quality Not available.
Flu Activity Sporadic
METAR KDGW 120953Z AUTO 00000KT 10SM BKN070 OVC090 16/13 A3019 RMK AO2 SLP164 T01610133

More Conditions Fewer Conditions

Pressure 30.02 in
Visibility 10.0 miles
Clouds Mostly Cloudy 7000 ft
Overcast 9000 ft
Dew Point 56 °F
Humidity 83%
Rainfall 0.00 in
Snow Depth Not available.
UV 0 out of 12
Pollen 3.30 out of 12
Air Quality Not available.
Flu Activity Sporadic
METAR KDGW 120953Z AUTO 00000KT 10SM BKN070 OVC090 16/13 A3019 RMK AO2 SLP164 T01610133

More Conditions Fewer Conditions

10-Day Weather Forecast

Almanac

Astronomy

Jul. 12, 2014 Rise Set
Actual Time 5:34 AM MDT 8:40 PM MDT
Civil Twilight 4:59 AM MDT 9:14 PM MDT
Nautical Twilight 4:15 AM MDT 9:58 PM MDT
Astronomical Twilight 3:22 AM MDT 10:51 PM MDT
Moon 8:41 PM MDT 5:58 AM MDT
Length of Visible Light 16h 15m
Length of Day
15h 06m
Tomorrow will be 1m 23s shorter.
Full, 100% of the Moon is Illuminated
Today
Full
Jul 12
Full
Jul 18
Last Quarter
Jul 26
New
Aug 3
First Quarter

Today's Extremes

State Highs State Lows

Community

WunderPhotos

Upload Photos

1,732,746 photos uploaded!

WunderBlogs® & News

Nearby

Snow Depth

Station Depth Elevation
Reno Hill 0 in 8500 ft
Casper Mountain 1 in 7850 ft
Grave Springs 0 in 8550 ft
Bear Trap Meadow 0 in 8200 ft
Sand Lake 0 in 10050 ft

Earthquake Activity

City Distance Mag. Time & Date
No recent earthquake activity has been reported nearby.
Minimum magnitude displayed is 2.5.

Coastal Water Temperatures

Place Temperature
No Stations Reporting

Nearby Weather Stations

Station Location Temp. Dew Point Humidity Wind Precip. Elev Updated Type
Converse County Flyers, Douglas, WY 60.4 °F 60 °F 99% East  at  2.2 mph 0.00 in / hr 4839 ft 4:00 AM MDT Normal
HADS NORTH PLATTE RIVER NEAR GLEN ROC WY, Glenrock, WY 61 °F - - North  at  - 0.00 in / hr 4948 ft 3:30 AM MDT MADIS
North of Rolling Hills WY, Glenrock, WY 59.8 °F 54 °F 82% ENE  at  3.0 mph 0.00 in / hr 5421 ft 4:02 AM MDT Rapid Fire

Show More Stations Show Fewer Stations